Track Иванова Варвара

Time Latitude Longitude Accuracy (66% radius in meters) Altitude (meters) Speed (km/hour) Bearing (degrees) Battery (%) GPS flag
10:03:25 55.737931 37.299003 12 175.07795344708 0.0052721574902534 21.336925506592 80 1 delete
10:03:16 55.737933 37.298998 8 175.24199418956 0.0051732086576521 21.336925506592 80 1 delete
10:03:04 55.737933 37.298998 8 175.59928283704 0 21.336925506592 80 1 delete
10:02:54 55.737933 37.298998 6 175.71179666552 0 21.336925506592 80 1 delete
10:02:42 55.737933 37.298998 4 175.9627678292 0 21.336925506592 80 1 delete
10:02:33 55.737933 37.298998 4 175.97815581005 0 21.336925506592 80 1 delete
10:02:21 55.737933 37.298998 4 175.97576742965 0 21.336925506592 80 1 delete
10:02:09 55.737933 37.298998 4 176.0045858559 0 21.336925506592 80 1 delete
10:01:57 55.737933 37.298998 4 176.0155609442 0 21.336925506592 80 1 delete
10:01:45 55.737933 37.298998 4 175.95094464639 0 21.336925506592 80 1 delete
10:01:33 55.737933 37.298998 6 175.99965068995 0 21.336925506592 80 1 delete
10:01:21 55.737933 37.298998 6 175.9777883431 0 21.336925506592 80 1 delete
10:01:09 55.737933 37.298998 8 175.81183648915 0 21.336925506592 80 1 delete
10:00:57 55.737933 37.298998 6 175.58757960436 0 21.336925506592 80 1 delete
10:00:45 55.737933 37.298998 4 175.55139175553 0 21.336925506592 80 1 delete
10:00:33 55.737933 37.298998 4 175.5400188745 0 21.336925506592 80 1 delete
10:00:21 55.737933 37.298998 4 175.53217009016 0 21.336925506592 80 1 delete
10:00:13 55.737933 37.298998 4 175.46793443998 0 21.336925506592 80 1 delete
09:59:57 55.737933 37.298998 12 175.39267953973 0 21.336925506592 80 1 delete
09:59:45 55.737933 37.298998 4 175.46756502609 0 21.336925506592 80 1 delete
09:59:33 55.737933 37.298998 8 175.31613502745 0 21.336925506592 80 1 delete
09:59:18 55.737933 37.298998 6 175.03953815364 0 21.336925506592 80 1 delete
09:59:06 55.737933 37.298998 8 174.99067667923 0 21.336925506592 80 1 delete
09:58:54 55.737933 37.298998 6 174.990662049 0 21.336925506592 80 1 delete
09:58:42 55.737933 37.298998 4 174.96067799115 0 21.336925506592 80 1 delete
09:58:30 55.737933 37.298998 4 175.11469876188 0 21.336925506592 80 1 delete
09:58:18 55.737933 37.298998 4 175.25452847118 0 21.336925506592 80 1 delete
09:58:06 55.737933 37.298998 4 175.26804870777 0 21.336925506592 80 1 delete
09:57:54 55.737933 37.298998 4 175.01233908297 0 21.336925506592 80 1 delete
09:57:42 55.737933 37.298998 4 174.80890501379 0 21.336925506592 80 1 delete
09:57:33 55.737933 37.298998 4 174.81835987035 0 21.336925506592 80 1 delete
09:57:21 55.737933 37.298998 4 174.83223702397 0 21.336925506592 80 1 delete
09:57:09 55.737933 37.298998 4 174.90137966899 0 21.336925506592 80 1 delete
09:56:57 55.737933 37.298998 12 174.92816376942 0 21.336925506592 80 1 delete
09:56:45 55.737933 37.298998 4 174.96217122955 0 21.336925506592 80 1 delete
09:56:33 55.737933 37.298998 4 174.98565056728 0 21.336925506592 80 1 delete
09:56:21 55.737933 37.298998 6 174.96637847834 0 21.336925506592 80 1 delete
09:56:09 55.737933 37.298998 4 174.90124180612 0 21.336925506592 80 1 delete
09:55:57 55.737933 37.298998 6 174.77555784776 0 21.336925506592 80 1 delete
09:55:45 55.737933 37.298998 4 174.65691693479 0 21.336925506592 80 1 delete
09:55:33 55.737933 37.298998 4 174.55494460666 0 21.336925506592 80 1 delete
09:55:21 55.737933 37.298998 4 174.46957230922 0 21.336925506592 80 1 delete
09:55:12 55.737933 37.298998 4 174.36115303105 0 21.336925506592 80 1 delete
09:55:00 55.737933 37.298998 6 174.12059560484 0 21.336925506592 80 1 delete
09:54:48 55.737933 37.298998 4 173.86407770392 0 21.336925506592 80 1 delete
09:54:36 55.737933 37.298998 6 173.65944365774 0 21.336925506592 80 1 delete
09:54:24 55.737933 37.298998 4 173.59888945245 0 21.336925506592 80 1 delete
09:54:12 55.737933 37.298998 4 173.55274575475 0 21.336925506592 80 1 delete
09:54:00 55.737933 37.298998 4 173.50789414727 0 21.336925506592 80 1 delete
09:53:48 55.737933 37.298998 4 173.38830361723 0 21.336925506592 80 1 delete